sensor_id;sensor_type;location;lat;lon;timestamp;P1;durP1;ratioP1;P2;durP2;ratioP2
42244;SDS011;27912;51.828;5.688;2023-03-19T00:02:10;4.82;;;0.40;;
42244;SDS011;27912;51.828;5.688;2023-03-19T00:04:36;2.03;;;0.40;;
42244;SDS011;27912;51.828;5.688;2023-03-19T00:07:02;2.45;;;0.40;;
42244;SDS011;27912;51.828;5.688;2023-03-19T00:09:27;2.55;;;0.30;;
42244;SDS011;27912;51.828;5.688;2023-03-19T00:11:53;2.17;;;0.40;;
42244;SDS011;27912;51.828;5.688;2023-03-19T00:14:18;0.82;;;0.32;;
42244;SDS011;27912;51.828;5.688;2023-03-19T00:16:44;1.23;;;0.50;;
42244;SDS011;27912;51.828;5.688;2023-03-19T00:19:10;1.52;;;0.47;;
42244;SDS011;27912;51.828;5.688;2023-03-19T00:21:36;2.97;;;0.43;;
42244;SDS011;27912;51.828;5.688;2023-03-19T00:24:01;1.70;;;0.60;;
42244;SDS011;27912;51.828;5.688;2023-03-19T00:26:28;1.50;;;0.50;;
42244;SDS011;27912;51.828;5.688;2023-03-19T00:28:55;3.72;;;0.60;;
42244;SDS011;27912;51.828;5.688;2023-03-19T00:31:21;1.23;;;0.52;;
42244;SDS011;27912;51.828;5.688;2023-03-19T00:33:47;1.77;;;0.60;;
42244;SDS011;27912;51.828;5.688;2023-03-19T00:36:13;1.48;;;0.50;;
42244;SDS011;27912;51.828;5.688;2023-03-19T00:38:40;1.25;;;0.57;;
42244;SDS011;27912;51.828;5.688;2023-03-19T00:41:06;1.20;;;0.50;;
42244;SDS011;27912;51.828;5.688;2023-03-19T00:43:32;2.28;;;0.50;;
42244;SDS011;27912;51.828;5.688;2023-03-19T00:45:58;2.33;;;0.50;;
42244;SDS011;27912;51.828;5.688;2023-03-19T00:48:24;2.22;;;0.50;;
42244;SDS011;27912;51.828;5.688;2023-03-19T00:50:50;2.85;;;0.50;;
42244;SDS011;27912;51.828;5.688;2023-03-19T00:53:16;2.80;;;0.50;;
42244;SDS011;27912;51.828;5.688;2023-03-19T00:55:42;0.90;;;0.38;;
42244;SDS011;27912;51.828;5.688;2023-03-19T00:58:07;1.27;;;0.40;;
42244;SDS011;27912;51.828;5.688;2023-03-19T01:00:34;2.80;;;0.50;;
42244;SDS011;27912;51.828;5.688;2023-03-19T01:03:00;1.75;;;0.43;;
42244;SDS011;27912;51.828;5.688;2023-03-19T01:05:26;1.83;;;0.57;;
42244;SDS011;27912;51.828;5.688;2023-03-19T01:07:51;1.65;;;0.40;;
42244;SDS011;27912;51.828;5.688;2023-03-19T01:10:18;1.45;;;0.45;;
42244;SDS011;27912;51.828;5.688;2023-03-19T01:12:44;1.70;;;0.40;;
42244;SDS011;27912;51.828;5.688;2023-03-19T01:15:10;1.33;;;0.40;;
42244;SDS011;27912;51.828;5.688;2023-03-19T01:17:36;1.27;;;0.38;;
42244;SDS011;27912;51.828;5.688;2023-03-19T01:20:03;3.28;;;0.50;;
42244;SDS011;27912;51.828;5.688;2023-03-19T01:22:34;1.77;;;0.50;;
42244;SDS011;27912;51.828;5.688;2023-03-19T01:25:01;1.65;;;0.50;;
42244;SDS011;27912;51.828;5.688;2023-03-19T01:27:28;2.13;;;0.40;;
42244;SDS011;27912;51.828;5.688;2023-03-19T01:29:54;1.70;;;0.43;;
42244;SDS011;27912;51.828;5.688;2023-03-19T01:32:20;3.47;;;0.60;;
42244;SDS011;27912;51.828;5.688;2023-03-19T01:34:45;2.65;;;0.60;;
42244;SDS011;27912;51.828;5.688;2023-03-19T01:37:11;3.10;;;0.68;;
42244;SDS011;27912;51.828;5.688;2023-03-19T01:39:37;1.60;;;0.50;;
42244;SDS011;27912;51.828;5.688;2023-03-19T01:42:03;1.85;;;0.70;;
42244;SDS011;27912;51.828;5.688;2023-03-19T01:44:32;1.88;;;0.60;;
42244;SDS011;27912;51.828;5.688;2023-03-19T01:47:00;1.42;;;0.50;;
42244;SDS011;27912;51.828;5.688;2023-03-19T01:49:30;2.25;;;0.70;;
42244;SDS011;27912;51.828;5.688;2023-03-19T01:51:56;1.60;;;0.70;;
42244;SDS011;27912;51.828;5.688;2023-03-19T01:54:24;1.73;;;0.70;;
42244;SDS011;27912;51.828;5.688;2023-03-19T01:56:52;3.58;;;0.80;;
42244;SDS011;27912;51.828;5.688;2023-03-19T01:59:27;3.30;;;0.90;;
42244;SDS011;27912;51.828;5.688;2023-03-19T02:02:08;1.90;;;0.70;;
42244;SDS011;27912;51.828;5.688;2023-03-19T02:04:43;3.50;;;0.80;;
42244;SDS011;27912;51.828;5.688;2023-03-19T02:07:11;3.40;;;0.80;;
42244;SDS011;27912;51.828;5.688;2023-03-19T02:09:38;2.42;;;0.90;;
42244;SDS011;27912;51.828;5.688;2023-03-19T02:12:07;2.05;;;1.13;;
42244;SDS011;27912;51.828;5.688;2023-03-19T02:14:34;3.60;;;1.10;;
42244;SDS011;27912;51.828;5.688;2023-03-19T02:16:59;3.47;;;1.10;;
42244;SDS011;27912;51.828;5.688;2023-03-19T02:19:39;3.92;;;1.40;;
42244;SDS011;27912;51.828;5.688;2023-03-19T02:22:07;3.08;;;1.30;;
42244;SDS011;27912;51.828;5.688;2023-03-19T02:24:35;3.47;;;1.10;;
42244;SDS011;27912;51.828;5.688;2023-03-19T02:27:23;4.10;;;1.20;;
42244;SDS011;27912;51.828;5.688;2023-03-19T02:29:49;2.50;;;0.90;;
42244;SDS011;27912;51.828;5.688;2023-03-19T02:32:15;3.25;;;1.27;;
42244;SDS011;27912;51.828;5.688;2023-03-19T02:34:41;4.47;;;1.27;;
42244;SDS011;27912;51.828;5.688;2023-03-19T02:37:12;3.40;;;1.30;;
42244;SDS011;27912;51.828;5.688;2023-03-19T02:39:49;4.70;;;1.60;;
42244;SDS011;27912;51.828;5.688;2023-03-19T02:42:16;4.90;;;1.33;;
42244;SDS011;27912;51.828;5.688;2023-03-19T02:44:43;3.72;;;1.50;;
42244;SDS011;27912;51.828;5.688;2023-03-19T02:47:10;3.53;;;1.00;;
42244;SDS011;27912;51.828;5.688;2023-03-19T02:49:36;3.42;;;1.40;;
42244;SDS011;27912;51.828;5.688;2023-03-19T02:52:02;3.20;;;1.60;;
42244;SDS011;27912;51.828;5.688;2023-03-19T02:54:27;2.25;;;1.27;;
42244;SDS011;27912;51.828;5.688;2023-03-19T02:56:53;2.80;;;1.85;;
42244;SDS011;27912;51.828;5.688;2023-03-19T02:59:19;4.13;;;1.63;;
42244;SDS011;27912;51.828;5.688;2023-03-19T03:01:45;3.22;;;1.40;;
42244;SDS011;27912;51.828;5.688;2023-03-19T03:04:10;3.72;;;2.00;;
42244;SDS011;27912;51.828;5.688;2023-03-19T03:06:38;4.68;;;2.08;;
42244;SDS011;27912;51.828;5.688;2023-03-19T03:09:03;3.85;;;2.00;;
42244;SDS011;27912;51.828;5.688;2023-03-19T03:11:29;5.00;;;2.50;;
42244;SDS011;27912;51.828;5.688;2023-03-19T03:13:55;5.55;;;2.50;;
42244;SDS011;27912;51.828;5.688;2023-03-19T03:16:21;6.07;;;2.47;;
42244;SDS011;27912;51.828;5.688;2023-03-19T03:18:47;4.38;;;2.38;;
42244;SDS011;27912;51.828;5.688;2023-03-19T03:21:12;4.78;;;2.70;;
42244;SDS011;27912;51.828;5.688;2023-03-19T03:23:39;4.53;;;2.75;;
42244;SDS011;27912;51.828;5.688;2023-03-19T03:26:05;7.03;;;2.97;;
42244;SDS011;27912;51.828;5.688;2023-03-19T03:28:31;6.32;;;2.88;;
42244;SDS011;27912;51.828;5.688;2023-03-19T03:30:57;5.55;;;2.95;;
42244;SDS011;27912;51.828;5.688;2023-03-19T03:33:24;6.90;;;3.20;;
42244;SDS011;27912;51.828;5.688;2023-03-19T03:35:49;7.57;;;3.70;;
42244;SDS011;27912;51.828;5.688;2023-03-19T03:38:15;6.05;;;3.80;;
42244;SDS011;27912;51.828;5.688;2023-03-19T03:40:42;6.40;;;3.83;;
42244;SDS011;27912;51.828;5.688;2023-03-19T03:43:08;6.72;;;3.80;;
42244;SDS011;27912;51.828;5.688;2023-03-19T03:45:34;6.13;;;4.00;;
42244;SDS011;27912;51.828;5.688;2023-03-19T03:48:01;6.00;;;4.75;;
42244;SDS011;27912;51.828;5.688;2023-03-19T03:50:27;7.13;;;4.70;;
42244;SDS011;27912;51.828;5.688;2023-03-19T03:52:52;7.47;;;4.93;;
42244;SDS011;27912;51.828;5.688;2023-03-19T03:55:18;7.93;;;5.38;;
42244;SDS011;27912;51.828;5.688;2023-03-19T03:57:43;7.35;;;5.55;;
42244;SDS011;27912;51.828;5.688;2023-03-19T04:00:09;7.35;;;5.65;;
42244;SDS011;27912;51.828;5.688;2023-03-19T04:02:36;9.55;;;6.57;;
42244;SDS011;27912;51.828;5.688;2023-03-19T04:05:02;10.15;;;6.20;;
42244;SDS011;27912;51.828;5.688;2023-03-19T04:07:28;10.13;;;5.78;;
42244;SDS011;27912;51.828;5.688;2023-03-19T04:09:55;9.68;;;6.03;;
42244;SDS011;27912;51.828;5.688;2023-03-19T04:12:22;8.50;;;6.57;;
42244;SDS011;27912;51.828;5.688;2023-03-19T04:14:48;11.27;;;7.47;;
42244;SDS011;27912;51.828;5.688;2023-03-19T04:17:13;10.80;;;7.25;;
42244;SDS011;27912;51.828;5.688;2023-03-19T04:19:39;11.95;;;7.47;;
42244;SDS011;27912;51.828;5.688;2023-03-19T04:22:04;12.98;;;7.50;;
42244;SDS011;27912;51.828;5.688;2023-03-19T04:24:32;12.90;;;7.70;;
42244;SDS011;27912;51.828;5.688;2023-03-19T04:26:57;10.50;;;6.97;;
42244;SDS011;27912;51.828;5.688;2023-03-19T04:29:23;12.45;;;7.20;;
42244;SDS011;27912;51.828;5.688;2023-03-19T04:31:49;10.65;;;7.75;;
42244;SDS011;27912;51.828;5.688;2023-03-19T04:34:15;12.23;;;8.55;;
42244;SDS011;27912;51.828;5.688;2023-03-19T04:36:41;9.75;;;7.60;;
42244;SDS011;27912;51.828;5.688;2023-03-19T04:39:07;10.73;;;8.63;;
42244;SDS011;27912;51.828;5.688;2023-03-19T04:41:33;12.82;;;8.77;;
42244;SDS011;27912;51.828;5.688;2023-03-19T04:43:59;15.35;;;9.40;;
42244;SDS011;27912;51.828;5.688;2023-03-19T04:46:25;14.13;;;8.68;;
42244;SDS011;27912;51.828;5.688;2023-03-19T04:48:51;15.88;;;9.77;;
42244;SDS011;27912;51.828;5.688;2023-03-19T04:51:17;14.27;;;9.35;;
42244;SDS011;27912;51.828;5.688;2023-03-19T04:53:45;13.80;;;10.10;;
42244;SDS011;27912;51.828;5.688;2023-03-19T04:56:11;14.40;;;10.25;;
42244;SDS011;27912;51.828;5.688;2023-03-19T04:58:40;15.55;;;10.30;;
42244;SDS011;27912;51.828;5.688;2023-03-19T05:01:06;17.52;;;10.40;;
42244;SDS011;27912;51.828;5.688;2023-03-19T05:03:31;17.00;;;9.93;;
42244;SDS011;27912;51.828;5.688;2023-03-19T05:05:57;15.65;;;9.75;;
42244;SDS011;27912;51.828;5.688;2023-03-19T05:08:23;16.00;;;9.68;;
42244;SDS011;27912;51.828;5.688;2023-03-19T05:10:48;17.50;;;11.20;;
42244;SDS011;27912;51.828;5.688;2023-03-19T05:13:14;18.30;;;10.68;;
42244;SDS011;27912;51.828;5.688;2023-03-19T05:15:40;18.23;;;11.85;;
42244;SDS011;27912;51.828;5.688;2023-03-19T05:18:07;19.38;;;11.48;;
42244;SDS011;27912;51.828;5.688;2023-03-19T05:20:32;16.65;;;11.35;;
42244;SDS011;27912;51.828;5.688;2023-03-19T05:22:59;14.93;;;11.18;;
42244;SDS011;27912;51.828;5.688;2023-03-19T05:25:25;16.90;;;10.52;;
42244;SDS011;27912;51.828;5.688;2023-03-19T05:27:51;16.02;;;11.30;;
42244;SDS011;27912;51.828;5.688;2023-03-19T05:30:16;19.80;;;11.50;;
42244;SDS011;27912;51.828;5.688;2023-03-19T05:32:43;16.90;;;11.32;;
42244;SDS011;27912;51.828;5.688;2023-03-19T05:35:10;18.52;;;11.27;;
42244;SDS011;27912;51.828;5.688;2023-03-19T05:37:36;16.38;;;11.82;;
42244;SDS011;27912;51.828;5.688;2023-03-19T05:40:02;20.30;;;13.38;;
42244;SDS011;27912;51.828;5.688;2023-03-19T05:42:29;18.27;;;11.95;;
42244;SDS011;27912;51.828;5.688;2023-03-19T05:44:54;20.27;;;12.13;;
42244;SDS011;27912;51.828;5.688;2023-03-19T05:47:20;19.63;;;13.07;;
42244;SDS011;27912;51.828;5.688;2023-03-19T05:49:46;16.95;;;12.05;;
42244;SDS011;27912;51.828;5.688;2023-03-19T05:52:12;15.10;;;10.73;;
42244;SDS011;27912;51.828;5.688;2023-03-19T05:54:38;16.98;;;12.05;;
42244;SDS011;27912;51.828;5.688;2023-03-19T05:57:05;16.08;;;10.90;;
42244;SDS011;27912;51.828;5.688;2023-03-19T05:59:31;16.98;;;10.82;;
42244;SDS011;27912;51.828;5.688;2023-03-19T06:01:58;15.85;;;10.65;;
42244;SDS011;27912;51.828;5.688;2023-03-19T06:04:23;16.98;;;11.75;;
42244;SDS011;27912;51.828;5.688;2023-03-19T06:06:49;15.98;;;10.60;;
42244;SDS011;27912;51.828;5.688;2023-03-19T06:09:15;19.13;;;11.50;;
42244;SDS011;27912;51.828;5.688;2023-03-19T06:11:41;16.10;;;9.98;;
42244;SDS011;27912;51.828;5.688;2023-03-19T06:14:07;18.25;;;11.18;;
42244;SDS011;27912;51.828;5.688;2023-03-19T06:16:32;16.90;;;10.43;;
42244;SDS011;27912;51.828;5.688;2023-03-19T06:18:58;16.05;;;10.82;;
42244;SDS011;27912;51.828;5.688;2023-03-19T06:21:24;16.90;;;10.90;;
42244;SDS011;27912;51.828;5.688;2023-03-19T06:23:54;13.80;;;10.50;;
42244;SDS011;27912;51.828;5.688;2023-03-19T06:26:20;14.25;;;10.20;;
42244;SDS011;27912;51.828;5.688;2023-03-19T06:28:46;17.73;;;11.98;;
42244;SDS011;27912;51.828;5.688;2023-03-19T06:31:12;17.38;;;11.05;;
42244;SDS011;27912;51.828;5.688;2023-03-19T06:33:38;16.60;;;11.07;;
42244;SDS011;27912;51.828;5.688;2023-03-19T06:36:03;15.27;;;9.90;;
42244;SDS011;27912;51.828;5.688;2023-03-19T06:38:29;18.60;;;11.60;;
42244;SDS011;27912;51.828;5.688;2023-03-19T06:40:55;17.58;;;10.52;;
42244;SDS011;27912;51.828;5.688;2023-03-19T06:43:20;16.30;;;10.98;;
42244;SDS011;27912;51.828;5.688;2023-03-19T06:45:46;18.85;;;10.50;;
42244;SDS011;27912;51.828;5.688;2023-03-19T06:48:12;18.42;;;11.27;;
42244;SDS011;27912;51.828;5.688;2023-03-19T06:50:37;15.75;;;11.23;;
42244;SDS011;27912;51.828;5.688;2023-03-19T06:53:03;15.23;;;11.43;;
42244;SDS011;27912;51.828;5.688;2023-03-19T06:55:28;18.48;;;11.68;;
42244;SDS011;27912;51.828;5.688;2023-03-19T06:57:55;17.88;;;10.93;;
42244;SDS011;27912;51.828;5.688;2023-03-19T07:00:21;16.88;;;12.00;;
42244;SDS011;27912;51.828;5.688;2023-03-19T07:02:47;15.93;;;11.13;;
42244;SDS011;27912;51.828;5.688;2023-03-19T07:05:13;17.45;;;12.45;;
42244;SDS011;27912;51.828;5.688;2023-03-19T07:07:39;15.50;;;11.35;;
42244;SDS011;27912;51.828;5.688;2023-03-19T07:10:05;16.20;;;11.32;;
42244;SDS011;27912;51.828;5.688;2023-03-19T07:12:31;17.98;;;11.90;;
42244;SDS011;27912;51.828;5.688;2023-03-19T07:14:57;17.15;;;11.63;;
42244;SDS011;27912;51.828;5.688;2023-03-19T07:17:22;17.58;;;11.05;;
42244;SDS011;27912;51.828;5.688;2023-03-19T07:19:49;14.05;;;10.45;;
42244;SDS011;27912;51.828;5.688;2023-03-19T07:22:15;16.38;;;11.57;;
42244;SDS011;27912;51.828;5.688;2023-03-19T07:24:41;17.02;;;11.55;;
42244;SDS011;27912;51.828;5.688;2023-03-19T07:27:07;18.48;;;12.30;;
42244;SDS011;27912;51.828;5.688;2023-03-19T07:29:33;15.23;;;11.98;;
42244;SDS011;27912;51.828;5.688;2023-03-19T07:31:58;15.75;;;10.93;;
42244;SDS011;27912;51.828;5.688;2023-03-19T07:34:24;16.25;;;11.45;;
42244;SDS011;27912;51.828;5.688;2023-03-19T07:36:50;19.48;;;13.02;;
42244;SDS011;27912;51.828;5.688;2023-03-19T07:39:17;19.30;;;12.57;;
42244;SDS011;27912;51.828;5.688;2023-03-19T07:41:43;16.88;;;11.93;;
42244;SDS011;27912;51.828;5.688;2023-03-19T07:44:11;16.95;;;11.32;;
42244;SDS011;27912;51.828;5.688;2023-03-19T07:46:37;17.15;;;11.45;;
42244;SDS011;27912;51.828;5.688;2023-03-19T07:49:02;17.77;;;11.25;;
42244;SDS011;27912;51.828;5.688;2023-03-19T07:51:28;16.77;;;11.52;;
42244;SDS011;27912;51.828;5.688;2023-03-19T07:53:54;14.70;;;10.90;;
42244;SDS011;27912;51.828;5.688;2023-03-19T07:56:19;13.82;;;10.35;;
42244;SDS011;27912;51.828;5.688;2023-03-19T07:58:45;15.57;;;11.20;;
42244;SDS011;27912;51.828;5.688;2023-03-19T08:01:11;13.60;;;9.77;;
42244;SDS011;27912;51.828;5.688;2023-03-19T08:03:36;15.85;;;10.73;;
42244;SDS011;27912;51.828;5.688;2023-03-19T08:06:02;16.15;;;11.27;;
42244;SDS011;27912;51.828;5.688;2023-03-19T08:08:28;14.05;;;10.15;;
42244;SDS011;27912;51.828;5.688;2023-03-19T08:10:53;15.45;;;10.20;;
42244;SDS011;27912;51.828;5.688;2023-03-19T08:13:19;13.70;;;10.38;;
42244;SDS011;27912;51.828;5.688;2023-03-19T08:15:45;16.20;;;10.77;;
42244;SDS011;27912;51.828;5.688;2023-03-19T08:18:11;16.33;;;10.85;;
42244;SDS011;27912;51.828;5.688;2023-03-19T08:20:37;15.45;;;9.45;;
42244;SDS011;27912;51.828;5.688;2023-03-19T08:23:03;20.75;;;10.32;;
42244;SDS011;27912;51.828;5.688;2023-03-19T08:25:28;13.93;;;9.27;;
42244;SDS011;27912;51.828;5.688;2023-03-19T08:27:56;15.38;;;10.20;;
42244;SDS011;27912;51.828;5.688;2023-03-19T08:30:23;16.40;;;10.27;;
42244;SDS011;27912;51.828;5.688;2023-03-19T08:32:48;17.23;;;10.63;;
42244;SDS011;27912;51.828;5.688;2023-03-19T08:35:14;12.45;;;8.77;;
42244;SDS011;27912;51.828;5.688;2023-03-19T08:37:40;13.55;;;8.80;;
42244;SDS011;27912;51.828;5.688;2023-03-19T08:40:06;13.48;;;9.18;;
42244;SDS011;27912;51.828;5.688;2023-03-19T08:42:33;16.17;;;9.35;;
42244;SDS011;27912;51.828;5.688;2023-03-19T08:44:59;16.58;;;11.35;;
42244;SDS011;27912;51.828;5.688;2023-03-19T08:47:24;18.58;;;13.18;;
42244;SDS011;27912;51.828;5.688;2023-03-19T08:49:50;19.52;;;13.10;;
42244;SDS011;27912;51.828;5.688;2023-03-19T08:52:17;18.63;;;14.02;;
42244;SDS011;27912;51.828;5.688;2023-03-19T08:54:43;21.35;;;14.75;;
42244;SDS011;27912;51.828;5.688;2023-03-19T08:57:09;23.40;;;16.33;;
42244;SDS011;27912;51.828;5.688;2023-03-19T08:59:35;21.52;;;15.55;;
42244;SDS011;27912;51.828;5.688;2023-03-19T09:02:00;25.55;;;16.88;;
42244;SDS011;27912;51.828;5.688;2023-03-19T09:04:26;21.17;;;15.32;;
42244;SDS011;27912;51.828;5.688;2023-03-19T09:06:52;19.15;;;14.13;;
42244;SDS011;27912;51.828;5.688;2023-03-19T09:09:18;22.35;;;15.07;;
42244;SDS011;27912;51.828;5.688;2023-03-19T09:11:45;25.38;;;15.15;;
42244;SDS011;27912;51.828;5.688;2023-03-19T09:14:11;21.60;;;15.15;;
42244;SDS011;27912;51.828;5.688;2023-03-19T09:16:37;15.98;;;12.85;;
42244;SDS011;27912;51.828;5.688;2023-03-19T09:19:04;19.95;;;13.98;;
42244;SDS011;27912;51.828;5.688;2023-03-19T09:21:30;22.25;;;14.68;;
42244;SDS011;27912;51.828;5.688;2023-03-19T09:23:56;19.15;;;13.65;;
42244;SDS011;27912;51.828;5.688;2023-03-19T09:26:22;16.58;;;13.15;;
42244;SDS011;27912;51.828;5.688;2023-03-19T09:28:47;22.77;;;14.75;;
42244;SDS011;27912;51.828;5.688;2023-03-19T09:31:13;21.52;;;13.93;;
42244;SDS011;27912;51.828;5.688;2023-03-19T09:33:39;20.10;;;13.77;;
42244;SDS011;27912;51.828;5.688;2023-03-19T09:36:04;19.05;;;13.85;;
42244;SDS011;27912;51.828;5.688;2023-03-19T09:38:30;19.08;;;13.70;;
42244;SDS011;27912;51.828;5.688;2023-03-19T09:41:13;25.40;;;13.77;;
42244;SDS011;27912;51.828;5.688;2023-03-19T09:46:39;21.30;;;15.38;;
42244;SDS011;27912;51.828;5.688;2023-03-19T09:49:15;23.40;;;15.75;;
42244;SDS011;27912;51.828;5.688;2023-03-19T09:52:01;18.55;;;14.55;;
42244;SDS011;27912;51.828;5.688;2023-03-19T09:54:38;20.88;;;14.88;;
42244;SDS011;27912;51.828;5.688;2023-03-19T09:57:10;21.60;;;17.05;;
42244;SDS011;27912;51.828;5.688;2023-03-19T09:59:36;22.23;;;17.48;;
42244;SDS011;27912;51.828;5.688;2023-03-19T10:08:20;21.42;;;17.65;;
42244;SDS011;27912;51.828;5.688;2023-03-19T10:13:45;24.85;;;19.05;;
42244;SDS011;27912;51.828;5.688;2023-03-19T10:16:21;28.55;;;20.95;;
42244;SDS011;27912;51.828;5.688;2023-03-19T10:18:49;34.58;;;26.63;;
42244;SDS011;27912;51.828;5.688;2023-03-19T10:24:09;25.52;;;21.17;;
42244;SDS011;27912;51.828;5.688;2023-03-19T10:26:38;30.10;;;24.30;;
42244;SDS011;27912;51.828;5.688;2023-03-19T10:29:11;32.75;;;23.77;;
42244;SDS011;27912;51.828;5.688;2023-03-19T10:31:48;31.00;;;23.92;;
42244;SDS011;27912;51.828;5.688;2023-03-19T10:34:30;32.28;;;24.38;;
42244;SDS011;27912;51.828;5.688;2023-03-19T10:37:02;37.92;;;25.95;;
42244;SDS011;27912;51.828;5.688;2023-03-19T10:39:52;38.17;;;25.90;;
42244;SDS011;27912;51.828;5.688;2023-03-19T10:45:09;33.95;;;24.30;;
42244;SDS011;27912;51.828;5.688;2023-03-19T10:48:00;31.05;;;21.90;;
42244;SDS011;27912;51.828;5.688;2023-03-19T10:50:34;37.65;;;24.38;;
42244;SDS011;27912;51.828;5.688;2023-03-19T10:55:43;31.23;;;24.13;;
42244;SDS011;27912;51.828;5.688;2023-03-19T10:58:54;36.50;;;24.05;;
42244;SDS011;27912;51.828;5.688;2023-03-19T11:01:21;34.38;;;23.23;;
42244;SDS011;27912;51.828;5.688;2023-03-19T11:03:56;32.45;;;21.45;;
42244;SDS011;27912;51.828;5.688;2023-03-19T11:09:29;32.67;;;21.92;;
42244;SDS011;27912;51.828;5.688;2023-03-19T11:12:05;33.63;;;24.58;;
42244;SDS011;27912;51.828;5.688;2023-03-19T11:14:35;33.28;;;22.98;;
42244;SDS011;27912;51.828;5.688;2023-03-19T11:17:05;31.60;;;23.50;;
42244;SDS011;27912;51.828;5.688;2023-03-19T11:19:41;32.38;;;21.27;;
42244;SDS011;27912;51.828;5.688;2023-03-19T11:22:23;33.38;;;20.60;;
42244;SDS011;27912;51.828;5.688;2023-03-19T11:24:53;25.83;;;20.25;;
42244;SDS011;27912;51.828;5.688;2023-03-19T11:27:31;23.48;;;19.35;;
42244;SDS011;27912;51.828;5.688;2023-03-19T11:29:59;36.60;;;23.77;;
42244;SDS011;27912;51.828;5.688;2023-03-19T11:32:36;30.67;;;22.63;;
42244;SDS011;27912;51.828;5.688;2023-03-19T11:35:11;26.20;;;20.60;;
42244;SDS011;27912;51.828;5.688;2023-03-19T11:38:02;31.33;;;21.52;;
42244;SDS011;27912;51.828;5.688;2023-03-19T11:46:08;28.25;;;19.73;;
42244;SDS011;27912;51.828;5.688;2023-03-19T11:51:33;31.70;;;21.48;;
42244;SDS011;27912;51.828;5.688;2023-03-19T11:54:21;32.40;;;21.60;;
42244;SDS011;27912;51.828;5.688;2023-03-19T12:02:13;26.77;;;17.20;;
42244;SDS011;27912;51.828;5.688;2023-03-19T12:09:55;24.80;;;16.40;;
42244;SDS011;27912;51.828;5.688;2023-03-19T12:12:25;26.55;;;16.67;;
42244;SDS011;27912;51.828;5.688;2023-03-19T12:17:43;30.42;;;16.08;;
42244;SDS011;27912;51.828;5.688;2023-03-19T12:20:22;26.25;;;16.50;;
42244;SDS011;27912;51.828;5.688;2023-03-19T12:22:58;27.38;;;16.27;;
42244;SDS011;27912;51.828;5.688;2023-03-19T12:28:46;26.73;;;16.80;;
42244;SDS011;27912;51.828;5.688;2023-03-19T12:34:18;32.53;;;17.95;;
42244;SDS011;27912;51.828;5.688;2023-03-19T12:37:30;30.30;;;17.67;;
42244;SDS011;27912;51.828;5.688;2023-03-19T12:42:51;28.05;;;18.30;;
42244;SDS011;27912;51.828;5.688;2023-03-19T12:47:53;28.33;;;17.58;;
42244;SDS011;27912;51.828;5.688;2023-03-19T12:50:24;26.05;;;17.10;;
42244;SDS011;27912;51.828;5.688;2023-03-19T12:52:54;29.25;;;18.15;;
42244;SDS011;27912;51.828;5.688;2023-03-19T13:03:32;22.90;;;14.38;;
42244;SDS011;27912;51.828;5.688;2023-03-19T13:06:22;18.98;;;12.85;;
42244;SDS011;27912;51.828;5.688;2023-03-19T13:12:02;19.67;;;13.93;;
42244;SDS011;27912;51.828;5.688;2023-03-19T13:14:51;18.25;;;13.75;;
42244;SDS011;27912;51.828;5.688;2023-03-19T13:20:13;19.17;;;11.55;;
42244;SDS011;27912;51.828;5.688;2023-03-19T13:22:50;17.13;;;11.57;;
42244;SDS011;27912;51.828;5.688;2023-03-19T13:25:21;19.90;;;13.27;;
42244;SDS011;27912;51.828;5.688;2023-03-19T13:27:52;21.05;;;13.18;;
42244;SDS011;27912;51.828;5.688;2023-03-19T13:30:18;19.27;;;13.18;;
42244;SDS011;27912;51.828;5.688;2023-03-19T13:32:49;17.45;;;11.00;;
42244;SDS011;27912;51.828;5.688;2023-03-19T13:37:43;18.60;;;11.25;;
42244;SDS011;27912;51.828;5.688;2023-03-19T13:43:02;17.40;;;11.43;;
42244;SDS011;27912;51.828;5.688;2023-03-19T13:51:21;16.33;;;10.93;;
42244;SDS011;27912;51.828;5.688;2023-03-19T13:53:57;18.48;;;11.50;;
42244;SDS011;27912;51.828;5.688;2023-03-19T13:59:37;14.38;;;9.52;;
42244;SDS011;27912;51.828;5.688;2023-03-19T14:07:38;20.98;;;13.02;;
42244;SDS011;27912;51.828;5.688;2023-03-19T14:12:59;19.88;;;12.13;;
42244;SDS011;27912;51.828;5.688;2023-03-19T14:15:31;19.45;;;12.65;;
42244;SDS011;27912;51.828;5.688;2023-03-19T14:18:01;19.05;;;12.60;;
42244;SDS011;27912;51.828;5.688;2023-03-19T14:20:31;19.95;;;11.57;;
42244;SDS011;27912;51.828;5.688;2023-03-19T14:23:10;21.48;;;13.43;;
42244;SDS011;27912;51.828;5.688;2023-03-19T14:25:53;19.88;;;13.68;;
42244;SDS011;27912;51.828;5.688;2023-03-19T14:28:22;17.90;;;12.63;;
42244;SDS011;27912;51.828;5.688;2023-03-19T14:31:00;17.45;;;11.27;;
42244;SDS011;27912;51.828;5.688;2023-03-19T14:33:43;20.58;;;12.77;;
42244;SDS011;27912;51.828;5.688;2023-03-19T14:36:16;19.20;;;12.68;;
42244;SDS011;27912;51.828;5.688;2023-03-19T14:39:27;17.63;;;12.00;;
42244;SDS011;27912;51.828;5.688;2023-03-19T14:41:43;21.75;;;13.27;;
42244;SDS011;27912;51.828;5.688;2023-03-19T14:47:15;16.48;;;11.10;;
42244;SDS011;27912;51.828;5.688;2023-03-19T14:49:49;18.50;;;11.05;;
42244;SDS011;27912;51.828;5.688;2023-03-19T14:52:42;15.52;;;11.13;;
42244;SDS011;27912;51.828;5.688;2023-03-19T14:55:34;22.73;;;13.10;;
42244;SDS011;27912;51.828;5.688;2023-03-19T14:58:01;18.47;;;13.37;;
42244;SDS011;27912;51.828;5.688;2023-03-19T15:00:26;19.38;;;11.60;;
42244;SDS011;27912;51.828;5.688;2023-03-19T15:02:52;15.70;;;10.45;;
42244;SDS011;27912;51.828;5.688;2023-03-19T15:05:25;20.80;;;13.23;;
42244;SDS011;27912;51.828;5.688;2023-03-19T15:07:56;22.02;;;13.57;;
42244;SDS011;27912;51.828;5.688;2023-03-19T15:10:31;19.90;;;12.68;;
42244;SDS011;27912;51.828;5.688;2023-03-19T15:13:30;21.92;;;13.48;;
42244;SDS011;27912;51.828;5.688;2023-03-19T15:19:00;22.73;;;13.82;;
42244;SDS011;27912;51.828;5.688;2023-03-19T15:21:27;23.35;;;14.32;;
42244;SDS011;27912;51.828;5.688;2023-03-19T15:23:54;22.45;;;13.80;;
42244;SDS011;27912;51.828;5.688;2023-03-19T15:26:30;20.58;;;12.43;;
42244;SDS011;27912;51.828;5.688;2023-03-19T15:28:58;16.98;;;11.55;;
42244;SDS011;27912;51.828;5.688;2023-03-19T15:31:39;20.67;;;12.10;;
42244;SDS011;27912;51.828;5.688;2023-03-19T15:34:20;20.58;;;13.63;;
42244;SDS011;27912;51.828;5.688;2023-03-19T15:36:51;19.90;;;13.13;;
42244;SDS011;27912;51.828;5.688;2023-03-19T15:39:22;19.40;;;12.63;;
42244;SDS011;27912;51.828;5.688;2023-03-19T15:41:51;18.40;;;11.77;;
42244;SDS011;27912;51.828;5.688;2023-03-19T15:44:23;18.95;;;12.52;;
42244;SDS011;27912;51.828;5.688;2023-03-19T15:46:57;21.42;;;12.68;;
42244;SDS011;27912;51.828;5.688;2023-03-19T15:49:28;18.35;;;12.05;;
42244;SDS011;27912;51.828;5.688;2023-03-19T15:52:01;16.10;;;9.68;;
42244;SDS011;27912;51.828;5.688;2023-03-19T15:54:31;17.67;;;9.95;;
42244;SDS011;27912;51.828;5.688;2023-03-19T15:56:57;14.18;;;10.23;;
42244;SDS011;27912;51.828;5.688;2023-03-19T15:59:22;14.60;;;10.55;;
42244;SDS011;27912;51.828;5.688;2023-03-19T16:01:55;17.02;;;11.02;;
42244;SDS011;27912;51.828;5.688;2023-03-19T16:04:23;22.42;;;11.40;;
42244;SDS011;27912;51.828;5.688;2023-03-19T16:06:53;16.40;;;10.13;;
42244;SDS011;27912;51.828;5.688;2023-03-19T16:09:24;13.55;;;8.73;;
42244;SDS011;27912;51.828;5.688;2023-03-19T16:11:53;17.42;;;9.98;;
42244;SDS011;27912;51.828;5.688;2023-03-19T16:14:38;12.73;;;8.30;;
42244;SDS011;27912;51.828;5.688;2023-03-19T16:19:54;11.63;;;7.93;;
42244;SDS011;27912;51.828;5.688;2023-03-19T16:22:26;14.73;;;8.48;;
42244;SDS011;27912;51.828;5.688;2023-03-19T16:24:54;13.70;;;7.88;;